sensor_id;sensor_type;location;lat;lon;timestamp;pressure;altitude;pressure_sealevel;temperature;humidity
42591;BME280;28218;53.342;-6.216;2023-07-31T00:01:27;100048.41;;;18.06;100.00
42591;BME280;28218;53.342;-6.216;2023-07-31T00:03:56;100051.31;;;18.04;100.00
42591;BME280;28218;53.342;-6.216;2023-07-31T00:06:25;100045.44;;;18.02;100.00
42591;BME280;28218;53.342;-6.216;2023-07-31T00:08:53;100041.13;;;18.01;100.00
42591;BME280;28218;53.342;-6.216;2023-07-31T00:11:21;100042.75;;;18.02;100.00
42591;BME280;28218;53.342;-6.216;2023-07-31T00:13:50;100041.13;;;18.01;100.00
42591;BME280;28218;53.342;-6.216;2023-07-31T00:16:20;100036.03;;;18.00;100.00
42591;BME280;28218;53.342;-6.216;2023-07-31T00:18:49;100031.97;;;17.97;100.00
42591;BME280;28218;53.342;-6.216;2023-07-31T00:21:18;100022.94;;;17.98;100.00
42591;BME280;28218;53.342;-6.216;2023-07-31T00:23:46;100020.75;;;17.95;100.00
42591;BME280;28218;53.342;-6.216;2023-07-31T00:26:15;100014.34;;;17.96;100.00
42591;BME280;28218;53.342;-6.216;2023-07-31T00:28:43;100001.03;;;17.96;100.00
42591;BME280;28218;53.342;-6.216;2023-07-31T00:31:12;100009.97;;;17.90;100.00
42591;BME280;28218;53.342;-6.216;2023-07-31T00:33:40;100016.91;;;17.91;100.00
42591;BME280;28218;53.342;-6.216;2023-07-31T00:36:08;100010.53;;;17.92;100.00
42591;BME280;28218;53.342;-6.216;2023-07-31T00:38:38;100014.94;;;17.86;100.00
42591;BME280;28218;53.342;-6.216;2023-07-31T00:41:06;100011.03;;;17.89;100.00
42591;BME280;28218;53.342;-6.216;2023-07-31T00:43:35;100015.31;;;17.90;100.00
42591;BME280;28218;53.342;-6.216;2023-07-31T00:46:03;100015.66;;;17.94;100.00
42591;BME280;28218;53.342;-6.216;2023-07-31T00:48:32;100014.13;;;17.98;100.00
42591;BME280;28218;53.342;-6.216;2023-07-31T00:51:00;100012.19;;;17.93;100.00
42591;BME280;28218;53.342;-6.216;2023-07-31T00:53:29;100007.53;;;17.88;100.00
42591;BME280;28218;53.342;-6.216;2023-07-31T00:55:59;100016.00;;;17.85;100.00
42591;BME280;28218;53.342;-6.216;2023-07-31T00:58:27;100019.72;;;17.84;100.00
42591;BME280;28218;53.342;-6.216;2023-07-31T01:00:55;100020.53;;;17.85;100.00
42591;BME280;28218;53.342;-6.216;2023-07-31T01:03:24;100034.66;;;17.85;100.00
42591;BME280;28218;53.342;-6.216;2023-07-31T01:06:03;100023.75;;;17.87;100.00
42591;BME280;28218;53.342;-6.216;2023-07-31T01:08:41;100021.09;;;17.87;100.00
42591;BME280;28218;53.342;-6.216;2023-07-31T01:11:16;100028.50;;;17.85;100.00
42591;BME280;28218;53.342;-6.216;2023-07-31T01:13:45;100022.13;;;17.86;100.00
42591;BME280;28218;53.342;-6.216;2023-07-31T01:16:14;100026.19;;;17.88;100.00
42591;BME280;28218;53.342;-6.216;2023-07-31T01:18:42;100017.03;;;17.84;100.00
42591;BME280;28218;53.342;-6.216;2023-07-31T01:21:22;100014.59;;;17.83;100.00
42591;BME280;28218;53.342;-6.216;2023-07-31T01:26:58;100029.66;;;17.77;100.00
42591;BME280;28218;53.342;-6.216;2023-07-31T01:29:37;100030.47;;;17.78;100.00
42591;BME280;28218;53.342;-6.216;2023-07-31T01:32:07;100024.34;;;17.77;100.00
42591;BME280;28218;53.342;-6.216;2023-07-31T01:34:37;100023.06;;;17.80;100.00
42591;BME280;28218;53.342;-6.216;2023-07-31T01:37:06;100022.03;;;17.81;100.00
42591;BME280;28218;53.342;-6.216;2023-07-31T01:39:34;100017.75;;;17.80;100.00
42591;BME280;28218;53.342;-6.216;2023-07-31T01:42:04;100006.50;;;17.78;100.00
42591;BME280;28218;53.342;-6.216;2023-07-31T01:44:32;100016.59;;;17.76;100.00
42591;BME280;28218;53.342;-6.216;2023-07-31T01:47:01;100020.28;;;17.75;100.00
42591;BME280;28218;53.342;-6.216;2023-07-31T01:49:29;100017.38;;;17.76;100.00
42591;BME280;28218;53.342;-6.216;2023-07-31T01:51:57;100023.16;;;17.73;100.00
42591;BME280;28218;53.342;-6.216;2023-07-31T01:54:25;100032.56;;;17.76;100.00
42591;BME280;28218;53.342;-6.216;2023-07-31T01:56:54;100032.56;;;17.76;100.00
42591;BME280;28218;53.342;-6.216;2023-07-31T01:59:24;100041.81;;;17.73;100.00
42591;BME280;28218;53.342;-6.216;2023-07-31T02:01:52;100036.34;;;17.68;100.00
42591;BME280;28218;53.342;-6.216;2023-07-31T02:04:20;100027.53;;;17.68;100.00
42591;BME280;28218;53.342;-6.216;2023-07-31T02:06:48;100028.59;;;17.67;100.00
42591;BME280;28218;53.342;-6.216;2023-07-31T02:09:17;100021.66;;;17.66;100.00
42591;BME280;28218;53.342;-6.216;2023-07-31T02:11:45;100036.84;;;17.65;100.00
42591;BME280;28218;53.342;-6.216;2023-07-31T02:14:13;100029.41;;;17.67;100.00
42591;BME280;28218;53.342;-6.216;2023-07-31T02:16:43;100034.97;;;17.66;100.00
42591;BME280;28218;53.342;-6.216;2023-07-31T02:19:11;100034.28;;;17.70;100.00
42591;BME280;28218;53.342;-6.216;2023-07-31T02:21:39;100031.25;;;17.67;100.00
42591;BME280;28218;53.342;-6.216;2023-07-31T02:24:07;100033.47;;;17.70;100.00
42591;BME280;28218;53.342;-6.216;2023-07-31T02:26:35;100035.09;;;17.71;100.00
42591;BME280;28218;53.342;-6.216;2023-07-31T02:29:04;100029.75;;;17.71;100.00
42591;BME280;28218;53.342;-6.216;2023-07-31T02:31:32;100028.72;;;17.72;100.00
42591;BME280;28218;53.342;-6.216;2023-07-31T02:34:02;100025.25;;;17.71;100.00
42591;BME280;28218;53.342;-6.216;2023-07-31T02:36:30;100027.66;;;17.73;100.00
42591;BME280;28218;53.342;-6.216;2023-07-31T02:38:59;100019.91;;;17.71;100.00
42591;BME280;28218;53.342;-6.216;2023-07-31T02:41:27;100022.22;;;17.68;100.00
42591;BME280;28218;53.342;-6.216;2023-07-31T02:43:55;100021.66;;;17.66;100.00
42591;BME280;28218;53.342;-6.216;2023-07-31T02:46:23;100016.31;;;17.66;100.00
42591;BME280;28218;53.342;-6.216;2023-07-31T02:48:52;100005.19;;;17.69;100.00
42591;BME280;28218;53.342;-6.216;2023-07-31T02:51:21;100007.63;;;17.70;100.00
42591;BME280;28218;53.342;-6.216;2023-07-31T02:53:50;100006.84;;;17.70;100.00
42591;BME280;28218;53.342;-6.216;2023-07-31T02:56:18;100011.09;;;17.71;100.00
42591;BME280;28218;53.342;-6.216;2023-07-31T02:58:46;100008.44;;;17.71;100.00
42591;BME280;28218;53.342;-6.216;2023-07-31T03:01:14;100004.16;;;17.70;100.00
42591;BME280;28218;53.342;-6.216;2023-07-31T03:03:43;100008.34;;;17.66;100.00
42591;BME280;28218;53.342;-6.216;2023-07-31T03:06:11;99997.44;;;17.67;100.00
42591;BME280;28218;53.342;-6.216;2023-07-31T03:08:41;99990.72;;;17.65;100.00
42591;BME280;28218;53.342;-6.216;2023-07-31T03:11:09;99985.41;;;17.65;100.00
42591;BME280;28218;53.342;-6.216;2023-07-31T03:13:38;99999.75;;;17.63;100.00
42591;BME280;28218;53.342;-6.216;2023-07-31T03:16:06;99990.94;;;17.63;100.00
42591;BME280;28218;53.342;-6.216;2023-07-31T03:18:34;100000.78;;;17.62;100.00
42591;BME280;28218;53.342;-6.216;2023-07-31T03:21:04;99992.69;;;17.57;100.00
42591;BME280;28218;53.342;-6.216;2023-07-31T03:23:32;99994.78;;;17.55;100.00
42591;BME280;28218;53.342;-6.216;2023-07-31T03:26:05;99994.19;;;17.53;100.00
42591;BME280;28218;53.342;-6.216;2023-07-31T03:28:33;99996.50;;;17.50;100.00
42591;BME280;28218;53.342;-6.216;2023-07-31T03:31:02;100000.44;;;17.47;100.00
42591;BME280;28218;53.342;-6.216;2023-07-31T03:33:30;99997.78;;;17.47;100.00
42591;BME280;28218;53.342;-6.216;2023-07-31T03:35:58;99992.81;;;17.51;100.00
42591;BME280;28218;53.342;-6.216;2023-07-31T03:38:26;99991.75;;;17.52;100.00
42591;BME280;28218;53.342;-6.216;2023-07-31T03:40:54;99998.47;;;17.54;100.00
42591;BME280;28218;53.342;-6.216;2023-07-31T03:43:24;99996.97;;;17.58;100.00
42591;BME280;28218;53.342;-6.216;2023-07-31T03:45:52;99988.63;;;17.55;100.00
42591;BME280;28218;53.342;-6.216;2023-07-31T03:48:21;99990.59;;;17.59;100.00
42591;BME280;28218;53.342;-6.216;2023-07-31T03:50:49;99978.69;;;17.62;100.00
42591;BME280;28218;53.342;-6.216;2023-07-31T03:53:17;99969.88;;;17.61;100.00
42591;BME280;28218;53.342;-6.216;2023-07-31T03:55:45;99966.41;;;17.61;100.00
42591;BME280;28218;53.342;-6.216;2023-07-31T03:58:14;99958.63;;;17.59;100.00
42591;BME280;28218;53.342;-6.216;2023-07-31T04:00:43;99971.94;;;17.59;100.00
42591;BME280;28218;53.342;-6.216;2023-07-31T04:03:11;99977.50;;;17.58;100.00
42591;BME280;28218;53.342;-6.216;2023-07-31T04:05:39;99965.81;;;17.59;100.00
42591;BME280;28218;53.342;-6.216;2023-07-31T04:08:08;99971.72;;;17.61;100.00
42591;BME280;28218;53.342;-6.216;2023-07-31T04:10:36;99970.94;;;17.60;100.00
42591;BME280;28218;53.342;-6.216;2023-07-31T04:13:04;99966.06;;;17.57;100.00
42591;BME280;28218;53.342;-6.216;2023-07-31T04:15:32;99978.81;;;17.55;100.00
42591;BME280;28218;53.342;-6.216;2023-07-31T04:18:02;99986.78;;;17.55;100.00
42591;BME280;28218;53.342;-6.216;2023-07-31T04:20:30;99989.34;;;17.50;100.00
42591;BME280;28218;53.342;-6.216;2023-07-31T04:22:59;100000.81;;;17.51;100.00
42591;BME280;28218;53.342;-6.216;2023-07-31T04:25:27;100017.47;;;17.46;100.00
42591;BME280;28218;53.342;-6.216;2023-07-31T04:27:55;100015.38;;;17.48;100.00
42591;BME280;28218;53.342;-6.216;2023-07-31T04:30:24;100020.25;;;17.51;100.00
42591;BME280;28218;53.342;-6.216;2023-07-31T04:32:52;100018.97;;;17.54;100.00
42591;BME280;28218;53.342;-6.216;2023-07-31T04:35:22;100009.13;;;17.54;100.00
42591;BME280;28218;53.342;-6.216;2023-07-31T04:37:50;99987.00;;;17.54;100.00
42591;BME280;28218;53.342;-6.216;2023-07-31T04:40:18;99985.63;;;17.51;100.00
42591;BME280;28218;53.342;-6.216;2023-07-31T04:42:46;99994.66;;;17.50;100.00
42591;BME280;28218;53.342;-6.216;2023-07-31T04:45:14;99985.03;;;17.49;100.00
42591;BME280;28218;53.342;-6.216;2023-07-31T04:47:43;99983.41;;;17.48;100.00
42591;BME280;28218;53.342;-6.216;2023-07-31T04:50:11;99976.47;;;17.47;100.00
42591;BME280;28218;53.342;-6.216;2023-07-31T04:52:41;99981.81;;;17.47;100.00
42591;BME280;28218;53.342;-6.216;2023-07-31T04:55:09;99969.53;;;17.46;100.00
42591;BME280;28218;53.342;-6.216;2023-07-31T04:57:37;99965.22;;;17.45;100.00
42591;BME280;28218;53.342;-6.216;2023-07-31T05:00:07;99967.88;;;17.45;100.00
42591;BME280;28218;53.342;-6.216;2023-07-31T05:02:35;99968.84;;;17.51;100.00
42591;BME280;28218;53.342;-6.216;2023-07-31T05:05:04;99972.31;;;17.51;100.00
42591;BME280;28218;53.342;-6.216;2023-07-31T05:07:32;99985.63;;;17.51;100.00
42591;BME280;28218;53.342;-6.216;2023-07-31T05:10:02;99995.00;;;17.54;100.00
42591;BME280;28218;53.342;-6.216;2023-07-31T05:12:30;100003.59;;;17.56;100.00
42591;BME280;28218;53.342;-6.216;2023-07-31T05:14:58;99989.47;;;17.55;100.00
42591;BME280;28218;53.342;-6.216;2023-07-31T05:17:26;99999.75;;;17.52;100.00
42591;BME280;28218;53.342;-6.216;2023-07-31T05:19:55;99988.28;;;17.51;100.00
42591;BME280;28218;53.342;-6.216;2023-07-31T05:22:23;99981.34;;;17.50;100.00
42591;BME280;28218;53.342;-6.216;2023-07-31T05:24:51;99993.50;;;17.46;100.00
42591;BME280;28218;53.342;-6.216;2023-07-31T05:27:22;99980.88;;;17.42;100.00
42591;BME280;28218;53.342;-6.216;2023-07-31T05:29:50;99979.84;;;17.43;100.00
42591;BME280;28218;53.342;-6.216;2023-07-31T05:32:18;99984.34;;;17.42;100.00
42591;BME280;28218;53.342;-6.216;2023-07-31T05:34:47;99975.75;;;17.40;100.00
42591;BME280;28218;53.342;-6.216;2023-07-31T05:37:15;99981.56;;;17.37;100.00
42591;BME280;28218;53.342;-6.216;2023-07-31T05:39:43;99978.66;;;17.38;100.00
42591;BME280;28218;53.342;-6.216;2023-07-31T05:42:12;99970.94;;;17.37;100.00
42591;BME280;28218;53.342;-6.216;2023-07-31T05:44:41;99972.53;;;17.38;100.00
42591;BME280;28218;53.342;-6.216;2023-07-31T05:47:10;99971.72;;;17.37;100.00
42591;BME280;28218;53.342;-6.216;2023-07-31T05:49:38;99979.13;;;17.35;100.00
42591;BME280;28218;53.342;-6.216;2023-07-31T05:52:07;99985.72;;;17.33;100.00
42591;BME280;28218;53.342;-6.216;2023-07-31T05:54:35;99992.69;;;17.34;100.00
42591;BME280;28218;53.342;-6.216;2023-07-31T05:57:04;99994.78;;;17.32;100.00
42591;BME280;28218;53.342;-6.216;2023-07-31T05:59:32;99997.44;;;17.32;100.00
42591;BME280;28218;53.342;-6.216;2023-07-31T06:02:02;99998.69;;;17.29;100.00
42591;BME280;28218;53.342;-6.216;2023-07-31T06:04:30;99998.94;;;17.28;100.00
42591;BME280;28218;53.342;-6.216;2023-07-31T06:06:58;100001.00;;;17.26;100.00
42591;BME280;28218;53.342;-6.216;2023-07-31T06:09:27;99997.16;;;17.22;100.00
42591;BME280;28218;53.342;-6.216;2023-07-31T06:11:55;99986.75;;;17.20;100.00
42591;BME280;28218;53.342;-6.216;2023-07-31T06:14:23;99985.94;;;17.20;100.00
42591;BME280;28218;53.342;-6.216;2023-07-31T06:16:52;99991.72;;;17.17;100.00
42591;BME280;28218;53.342;-6.216;2023-07-31T06:19:21;99984.78;;;17.16;100.00
42591;BME280;28218;53.342;-6.216;2023-07-31T06:21:49;99991.94;;;17.15;100.00
42591;BME280;28218;53.342;-6.216;2023-07-31T06:24:18;99989.53;;;17.14;100.00
42591;BME280;28218;53.342;-6.216;2023-07-31T06:26:47;99985.25;;;17.13;100.00
42591;BME280;28218;53.342;-6.216;2023-07-31T06:29:15;99982.59;;;17.13;100.00
42591;BME280;28218;53.342;-6.216;2023-07-31T06:31:43;99973.56;;;17.14;100.00
42591;BME280;28218;53.342;-6.216;2023-07-31T06:34:12;99986.06;;;17.13;100.00
42591;BME280;28218;53.342;-6.216;2023-07-31T06:36:42;99980.75;;;17.13;100.00
42591;BME280;28218;53.342;-6.216;2023-07-31T06:39:10;99979.94;;;17.13;100.00
42591;BME280;28218;53.342;-6.216;2023-07-31T06:41:38;99992.41;;;17.12;100.00
42591;BME280;28218;53.342;-6.216;2023-07-31T06:44:06;100004.44;;;17.15;100.00
42591;BME280;28218;53.342;-6.216;2023-07-31T06:46:34;100004.91;;;17.11;100.00
42591;BME280;28218;53.342;-6.216;2023-07-31T06:49:03;100014.88;;;17.16;100.00
42591;BME280;28218;53.342;-6.216;2023-07-31T06:51:32;100019.97;;;17.18;100.00
42591;BME280;28218;53.342;-6.216;2023-07-31T06:54:01;100015.47;;;17.18;100.00
42591;BME280;28218;53.342;-6.216;2023-07-31T06:56:29;100031.78;;;17.22;100.00
42591;BME280;28218;53.342;-6.216;2023-07-31T06:58:58;100021.97;;;17.22;100.00
42591;BME280;28218;53.342;-6.216;2023-07-31T07:01:26;100019.28;;;17.22;100.00
42591;BME280;28218;53.342;-6.216;2023-07-31T07:03:55;100015.34;;;17.25;100.00
42591;BME280;28218;53.342;-6.216;2023-07-31T07:06:23;100001.59;;;17.28;100.00
42591;BME280;28218;53.342;-6.216;2023-07-31T07:08:52;99988.84;;;17.30;100.00
42591;BME280;28218;53.342;-6.216;2023-07-31T07:11:21;99968.34;;;17.30;100.00
42591;BME280;28218;53.342;-6.216;2023-07-31T07:13:50;99963.84;;;17.31;100.00
42591;BME280;28218;53.342;-6.216;2023-07-31T07:16:18;99962.81;;;17.32;100.00
42591;BME280;28218;53.342;-6.216;2023-07-31T07:18:46;99962.56;;;17.33;100.00
42591;BME280;28218;53.342;-6.216;2023-07-31T07:21:29;99959.66;;;17.35;100.00
42591;BME280;28218;53.342;-6.216;2023-07-31T07:23:57;99957.50;;;17.32;100.00
42591;BME280;28218;53.342;-6.216;2023-07-31T07:26:27;99964.44;;;17.33;100.00
42591;BME280;28218;53.342;-6.216;2023-07-31T07:28:55;99962.00;;;17.31;100.00
42591;BME280;28218;53.342;-6.216;2023-07-31T07:31:27;99964.31;;;17.28;100.00
42591;BME280;28218;53.342;-6.216;2023-07-31T07:33:55;99966.03;;;17.34;100.00
42591;BME280;28218;53.342;-6.216;2023-07-31T07:36:24;99959.91;;;17.33;100.00
42591;BME280;28218;53.342;-6.216;2023-07-31T07:38:52;99970.00;;;17.31;100.00
42591;BME280;28218;53.342;-6.216;2023-07-31T07:41:20;99970.81;;;17.32;100.00
42591;BME280;28218;53.342;-6.216;2023-07-31T07:43:49;99957.69;;;17.30;100.00
42591;BME280;28218;53.342;-6.216;2023-07-31T07:46:18;99961.16;;;17.31;100.00
42591;BME280;28218;53.342;-6.216;2023-07-31T07:48:47;99966.97;;;17.28;100.00
42591;BME280;28218;53.342;-6.216;2023-07-31T07:51:15;99957.38;;;17.27;100.00
42591;BME280;28218;53.342;-6.216;2023-07-31T07:53:43;99960.16;;;17.32;100.00
42591;BME280;28218;53.342;-6.216;2023-07-31T07:56:11;99953.78;;;17.33;100.00
42591;BME280;28218;53.342;-6.216;2023-07-31T07:58:40;99959.47;;;17.36;100.00
42591;BME280;28218;53.342;-6.216;2023-07-31T08:01:09;99970.00;;;17.43;100.00
42591;BME280;28218;53.342;-6.216;2023-07-31T08:03:37;99971.03;;;17.42;100.00
42591;BME280;28218;53.342;-6.216;2023-07-31T08:06:06;99974.06;;;17.46;100.00
42591;BME280;28218;53.342;-6.216;2023-07-31T08:08:36;99977.84;;;17.50;100.00
42591;BME280;28218;53.342;-6.216;2023-07-31T08:11:04;99983.78;;;17.52;100.00
42591;BME280;28218;53.342;-6.216;2023-07-31T08:13:33;99996.63;;;17.55;100.00
42591;BME280;28218;53.342;-6.216;2023-07-31T08:16:03;99995.00;;;17.54;100.00
42591;BME280;28218;53.342;-6.216;2023-07-31T08:18:33;99993.94;;;17.55;100.00
42591;BME280;28218;53.342;-6.216;2023-07-31T08:21:03;100003.59;;;17.56;100.00
42591;BME280;28218;53.342;-6.216;2023-07-31T08:23:31;100023.41;;;17.60;100.00
42591;BME280;28218;53.342;-6.216;2023-07-31T08:26:00;100029.41;;;17.55;100.00
42591;BME280;28218;53.342;-6.216;2023-07-31T08:28:28;100026.16;;;17.53;100.00
42591;BME280;28218;53.342;-6.216;2023-07-31T08:30:56;100022.13;;;17.51;100.00
42591;BME280;28218;53.342;-6.216;2023-07-31T08:33:24;100029.50;;;17.49;100.00
42591;BME280;28218;53.342;-6.216;2023-07-31T08:35:54;100037.28;;;17.50;100.00
42591;BME280;28218;53.342;-6.216;2023-07-31T08:38:22;100030.09;;;17.51;100.00
42591;BME280;28218;53.342;-6.216;2023-07-31T08:40:52;100021.75;;;17.47;100.00
42591;BME280;28218;53.342;-6.216;2023-07-31T08:43:22;100029.16;;;17.45;100.00
42591;BME280;28218;53.342;-6.216;2023-07-31T08:45:53;100010.50;;;17.45;100.00
42591;BME280;28218;53.342;-6.216;2023-07-31T08:48:23;100015.50;;;17.42;100.00
42591;BME280;28218;53.342;-6.216;2023-07-31T08:50:51;100012.03;;;17.41;100.00
42591;BME280;28218;53.342;-6.216;2023-07-31T08:53:22;99996.63;;;17.43;100.00
42591;BME280;28218;53.342;-6.216;2023-07-31T08:55:52;99999.41;;;17.48;100.00
42591;BME280;28218;53.342;-6.216;2023-07-31T08:58:21;100000.56;;;17.52;100.00
42591;BME280;28218;53.342;-6.216;2023-07-31T09:00:52;99989.47;;;17.55;100.00
42591;BME280;28218;53.342;-6.216;2023-07-31T09:03:23;99981.47;;;17.55;100.00
42591;BME280;28218;53.342;-6.216;2023-07-31T09:05:53;99982.16;;;17.51;100.00
42591;BME280;28218;53.342;-6.216;2023-07-31T09:08:23;99969.97;;;17.55;100.00
42591;BME280;28218;53.342;-6.216;2023-07-31T09:10:53;99968.47;;;17.59;100.00
42591;BME280;28218;53.342;-6.216;2023-07-31T09:13:22;99975.44;;;17.60;100.00
42591;BME280;28218;53.342;-6.216;2023-07-31T09:15:50;99970.34;;;17.58;100.00
42591;BME280;28218;53.342;-6.216;2023-07-31T09:18:19;99962.81;;;17.55;100.00
42591;BME280;28218;53.342;-6.216;2023-07-31T09:21:00;99971.84;;;17.54;100.00
42591;BME280;28218;53.342;-6.216;2023-07-31T09:23:42;99978.69;;;17.50;100.00
42591;BME280;28218;53.342;-6.216;2023-07-31T09:26:10;99988.06;;;17.53;100.00
42591;BME280;28218;53.342;-6.216;2023-07-31T09:28:38;99980.50;;;17.50;100.00
42591;BME280;28218;53.342;-6.216;2023-07-31T09:31:07;99998.13;;;17.51;100.00
42591;BME280;28218;53.342;-6.216;2023-07-31T09:33:54;99998.94;;;17.51;100.00
42591;BME280;28218;53.342;-6.216;2023-07-31T09:36:23;100009.47;;;17.58;100.00
42591;BME280;28218;53.342;-6.216;2023-07-31T09:38:53;100014.56;;;17.59;100.00
42591;BME280;28218;53.342;-6.216;2023-07-31T09:41:21;100026.63;;;17.50;100.00
42591;BME280;28218;53.342;-6.216;2023-07-31T09:43:53;100031.47;;;17.53;100.00
42591;BME280;28218;53.342;-6.216;2023-07-31T09:46:21;100029.28;;;17.50;100.00
42591;BME280;28218;53.342;-6.216;2023-07-31T09:48:50;100031.72;;;17.52;100.00
42591;BME280;28218;53.342;-6.216;2023-07-31T09:51:25;100025.22;;;17.48;100.00
42591;BME280;28218;53.342;-6.216;2023-07-31T09:53:55;100028.47;;;17.50;100.00
42591;BME280;28218;53.342;-6.216;2023-07-31T09:56:24;100018.63;;;17.50;100.00
42591;BME280;28218;53.342;-6.216;2023-07-31T09:58:53;100022.44;;;17.54;100.00
42591;BME280;28218;53.342;-6.216;2023-07-31T10:01:22;100017.91;;;17.55;100.00
42591;BME280;28218;53.342;-6.216;2023-07-31T10:03:50;100017.13;;;17.54;100.00
42591;BME280;28218;53.342;-6.216;2023-07-31T10:06:18;100004.03;;;17.53;100.00
42591;BME280;28218;53.342;-6.216;2023-07-31T10:08:47;100000.91;;;17.56;100.00
42591;BME280;28218;53.342;-6.216;2023-07-31T10:11:21;100002.19;;;17.53;100.00
42591;BME280;28218;53.342;-6.216;2023-07-31T10:13:50;100008.44;;;17.47;100.00
42591;BME280;28218;53.342;-6.216;2023-07-31T10:16:19;100003.69;;;17.49;100.00
42591;BME280;28218;53.342;-6.216;2023-07-31T10:18:49;99989.09;;;17.52;100.00
42591;BME280;28218;53.342;-6.216;2023-07-31T10:21:19;99995.69;;;17.49;100.00
42591;BME280;28218;53.342;-6.216;2023-07-31T10:23:47;99988.75;;;17.48;100.00
42591;BME280;28218;53.342;-6.216;2023-07-31T10:26:17;99990.38;;;17.49;100.00
42591;BME280;28218;53.342;-6.216;2023-07-31T10:28:48;99989.78;;;17.47;100.00
42591;BME280;28218;53.342;-6.216;2023-07-31T10:31:18;99998.03;;;17.46;100.00
42591;BME280;28218;53.342;-6.216;2023-07-31T10:33:46;100007.28;;;17.43;100.00
42591;BME280;28218;53.342;-6.216;2023-07-31T10:36:17;100008.19;;;17.37;100.00
42591;BME280;28218;53.342;-6.216;2023-07-31T10:38:46;100013.97;;;17.34;100.00
42591;BME280;28218;53.342;-6.216;2023-07-31T10:41:16;100018.50;;;17.33;100.00
42591;BME280;28218;53.342;-6.216;2023-07-31T10:43:46;100022.09;;;17.39;100.00
42591;BME280;28218;53.342;-6.216;2023-07-31T10:46:16;100028.69;;;17.36;100.00
42591;BME280;28218;53.342;-6.216;2023-07-31T10:48:45;100028.69;;;17.36;100.00
42591;BME280;28218;53.342;-6.216;2023-07-31T10:51:13;100024.50;;;17.41;100.00
42591;BME280;28218;53.342;-6.216;2023-07-31T10:53:42;100025.69;;;17.45;100.00
42591;BME280;28218;53.342;-6.216;2023-07-31T10:56:11;100012.47;;;17.50;100.00
42591;BME280;28218;53.342;-6.216;2023-07-31T10:58:44;100019.88;;;17.59;100.00
42591;BME280;28218;53.342;-6.216;2023-07-31T11:01:12;100011.00;;;17.66;100.00
42591;BME280;28218;53.342;-6.216;2023-07-31T11:03:43;100008.13;;;17.79;100.00
42591;BME280;28218;53.342;-6.216;2023-07-31T11:06:12;100006.50;;;17.90;100.00
42591;BME280;28218;53.342;-6.216;2023-07-31T11:08:46;99996.19;;;17.93;100.00
42591;BME280;28218;53.342;-6.216;2023-07-31T11:11:17;99987.81;;;18.01;100.00
42591;BME280;28218;53.342;-6.216;2023-07-31T11:13:47;99984.69;;;18.04;100.00
42591;BME280;28218;53.342;-6.216;2023-07-31T11:16:17;99976.22;;;18.07;100.00
42591;BME280;28218;53.342;-6.216;2023-07-31T11:18:48;99983.28;;;18.13;100.00
42591;BME280;28218;53.342;-6.216;2023-07-31T11:21:20;99969.81;;;18.20;100.00
42591;BME280;28218;53.342;-6.216;2023-07-31T11:23:50;99972.91;;;18.29;100.00
42591;BME280;28218;53.342;-6.216;2023-07-31T11:26:18;99974.88;;;18.33;100.00
42591;BME280;28218;53.342;-6.216;2023-07-31T11:28:47;99959.53;;;18.41;100.00
42591;BME280;28218;53.342;-6.216;2023-07-31T11:31:16;99957.69;;;18.41;100.00
42591;BME280;28218;53.342;-6.216;2023-07-31T11:33:47;99952.81;;;18.38;100.00
42591;BME280;28218;53.342;-6.216;2023-07-31T11:36:15;99958.50;;;18.42;100.00
42591;BME280;28218;53.342;-6.216;2023-07-31T11:38:45;99960.69;;;18.45;100.00
42591;BME280;28218;53.342;-6.216;2023-07-31T11:41:14;99953.50;;;18.45;100.00
42591;BME280;28218;53.342;-6.216;2023-07-31T11:43:43;99953.94;;;18.54;100.00
42591;BME280;28218;53.342;-6.216;2023-07-31T11:46:11;99956.19;;;18.62;100.00
42591;BME280;28218;53.342;-6.216;2023-07-31T11:48:41;99946.41;;;18.68;100.00
42591;BME280;28218;53.342;-6.216;2023-07-31T11:51:12;99945.59;;;18.79;100.00
42591;BME280;28218;53.342;-6.216;2023-07-31T11:53:43;99951.66;;;18.91;100.00
42591;BME280;28218;53.342;-6.216;2023-07-31T11:56:16;99947.13;;;19.08;100.00
42591;BME280;28218;53.342;-6.216;2023-07-31T11:58:46;99947.28;;;19.35;100.00
42591;BME280;28218;53.342;-6.216;2023-07-31T12:01:16;99946.31;;;19.41;100.00
42591;BME280;28218;53.342;-6.216;2023-07-31T12:03:46;99951.00;;;19.51;100.00
42591;BME280;28218;53.342;-6.216;2023-07-31T12:06:16;99941.03;;;19.47;100.00
42591;BME280;28218;53.342;-6.216;2023-07-31T12:08:44;99942.84;;;19.41;100.00
42591;BME280;28218;53.342;-6.216;2023-07-31T12:11:13;99955.38;;;19.57;100.00
42591;BME280;28218;53.342;-6.216;2023-07-31T12:13:41;99940.97;;;19.80;100.00
42591;BME280;28218;53.342;-6.216;2023-07-31T12:16:10;99930.88;;;20.04;100.00
42591;BME280;28218;53.342;-6.216;2023-07-31T12:18:38;99934.31;;;20.27;100.00
42591;BME280;28218;53.342;-6.216;2023-07-31T12:21:08;99919.53;;;20.46;100.00
42591;BME280;28218;53.342;-6.216;2023-07-31T12:23:39;99902.16;;;20.71;100.00
42591;BME280;28218;53.342;-6.216;2023-07-31T12:26:11;99906.34;;;20.93;100.00
42591;BME280;28218;53.342;-6.216;2023-07-31T12:28:41;99911.00;;;21.03;100.00
42591;BME280;28218;53.342;-6.216;2023-07-31T12:31:11;99916.34;;;21.03;100.00
42591;BME280;28218;53.342;-6.216;2023-07-31T12:33:40;99906.97;;;21.06;100.00
42591;BME280;28218;53.342;-6.216;2023-07-31T12:36:10;99916.63;;;21.07;100.00
42591;BME280;28218;53.342;-6.216;2023-07-31T12:38:40;99920.94;;;21.08;100.00
42591;BME280;28218;53.342;-6.216;2023-07-31T12:41:09;99917.22;;;21.14;100.00
42591;BME280;28218;53.342;-6.216;2023-07-31T12:43:38;99916.34;;;21.40;100.00
42591;BME280;28218;53.342;-6.216;2023-07-31T12:46:07;99920.53;;;21.74;100.00
42591;BME280;28218;53.342;-6.216;2023-07-31T12:48:36;99913.38;;;21.89;100.00